sensor_id;sensor_type;location;lat;lon;timestamp;P1;durP1;ratioP1;P2;durP2;ratioP2
25439;SDS011;13365;52.208;5.488;2022-12-18T00:00:41;17.63;;;7.45;;
25439;SDS011;13365;52.208;5.488;2022-12-18T00:03:07;17.98;;;7.30;;
25439;SDS011;13365;52.208;5.488;2022-12-18T00:05:32;21.02;;;6.97;;
25439;SDS011;13365;52.208;5.488;2022-12-18T00:07:58;19.90;;;7.93;;
25439;SDS011;13365;52.208;5.488;2022-12-18T00:10:23;15.38;;;7.70;;
25439;SDS011;13365;52.208;5.488;2022-12-18T00:12:49;30.20;;;8.82;;
25439;SDS011;13365;52.208;5.488;2022-12-18T00:15:15;31.67;;;10.73;;
25439;SDS011;13365;52.208;5.488;2022-12-18T00:17:40;20.48;;;8.07;;
25439;SDS011;13365;52.208;5.488;2022-12-18T00:20:06;17.55;;;7.72;;
25439;SDS011;13365;52.208;5.488;2022-12-18T00:22:32;18.98;;;8.75;;
25439;SDS011;13365;52.208;5.488;2022-12-18T00:24:57;15.65;;;8.15;;
25439;SDS011;13365;52.208;5.488;2022-12-18T00:27:23;33.78;;;7.90;;
25439;SDS011;13365;52.208;5.488;2022-12-18T00:29:48;36.80;;;9.07;;
25439;SDS011;13365;52.208;5.488;2022-12-18T00:32:14;17.00;;;9.65;;
25439;SDS011;13365;52.208;5.488;2022-12-18T00:34:39;19.08;;;7.75;;
25439;SDS011;13365;52.208;5.488;2022-12-18T00:37:05;19.42;;;8.85;;
25439;SDS011;13365;52.208;5.488;2022-12-18T00:39:30;18.98;;;8.63;;
25439;SDS011;13365;52.208;5.488;2022-12-18T00:41:56;19.13;;;7.72;;
25439;SDS011;13365;52.208;5.488;2022-12-18T00:44:40;25.20;;;9.77;;
25439;SDS011;13365;52.208;5.488;2022-12-18T00:47:05;40.63;;;9.25;;
25439;SDS011;13365;52.208;5.488;2022-12-18T00:49:31;22.98;;;8.95;;
25439;SDS011;13365;52.208;5.488;2022-12-18T00:51:56;22.60;;;8.10;;
25439;SDS011;13365;52.208;5.488;2022-12-18T00:54:23;26.52;;;7.68;;
25439;SDS011;13365;52.208;5.488;2022-12-18T00:56:49;17.08;;;7.53;;
25439;SDS011;13365;52.208;5.488;2022-12-18T00:59:14;17.33;;;5.68;;
25439;SDS011;13365;52.208;5.488;2022-12-18T01:01:40;13.25;;;5.95;;
25439;SDS011;13365;52.208;5.488;2022-12-18T01:04:06;22.17;;;8.10;;
25439;SDS011;13365;52.208;5.488;2022-12-18T01:06:31;20.60;;;7.50;;
25439;SDS011;13365;52.208;5.488;2022-12-18T01:08:57;25.35;;;8.13;;
25439;SDS011;13365;52.208;5.488;2022-12-18T01:11:23;20.92;;;8.88;;
25439;SDS011;13365;52.208;5.488;2022-12-18T01:13:49;20.88;;;6.43;;
25439;SDS011;13365;52.208;5.488;2022-12-18T01:16:17;23.67;;;10.40;;
25439;SDS011;13365;52.208;5.488;2022-12-18T01:18:42;17.80;;;7.40;;
25439;SDS011;13365;52.208;5.488;2022-12-18T01:21:09;26.05;;;9.43;;
25439;SDS011;13365;52.208;5.488;2022-12-18T01:23:37;15.65;;;6.43;;
25439;SDS011;13365;52.208;5.488;2022-12-18T01:26:13;19.88;;;7.03;;
25439;SDS011;13365;52.208;5.488;2022-12-18T01:28:40;19.00;;;8.68;;
25439;SDS011;13365;52.208;5.488;2022-12-18T01:31:21;26.38;;;7.57;;
25439;SDS011;13365;52.208;5.488;2022-12-18T01:33:49;24.58;;;7.50;;
25439;SDS011;13365;52.208;5.488;2022-12-18T01:36:17;22.58;;;6.80;;
25439;SDS011;13365;52.208;5.488;2022-12-18T01:38:45;21.65;;;10.63;;
25439;SDS011;13365;52.208;5.488;2022-12-18T01:41:12;25.67;;;8.05;;
25439;SDS011;13365;52.208;5.488;2022-12-18T01:43:48;18.42;;;7.43;;
25439;SDS011;13365;52.208;5.488;2022-12-18T01:46:19;18.77;;;9.52;;
25439;SDS011;13365;52.208;5.488;2022-12-18T01:48:50;12.38;;;5.60;;
25439;SDS011;13365;52.208;5.488;2022-12-18T01:51:22;19.02;;;7.13;;
25439;SDS011;13365;52.208;5.488;2022-12-18T01:53:48;21.38;;;8.52;;
25439;SDS011;13365;52.208;5.488;2022-12-18T01:56:18;31.48;;;9.70;;
25439;SDS011;13365;52.208;5.488;2022-12-18T01:59:04;27.08;;;7.55;;
25439;SDS011;13365;52.208;5.488;2022-12-18T02:01:32;18.73;;;7.03;;
25439;SDS011;13365;52.208;5.488;2022-12-18T02:07:07;13.90;;;7.07;;
25439;SDS011;13365;52.208;5.488;2022-12-18T02:12:37;18.52;;;7.07;;
25439;SDS011;13365;52.208;5.488;2022-12-18T02:17:56;16.38;;;7.57;;
25439;SDS011;13365;52.208;5.488;2022-12-18T02:20:45;24.23;;;6.90;;
25439;SDS011;13365;52.208;5.488;2022-12-18T02:23:36;23.08;;;9.52;;
25439;SDS011;13365;52.208;5.488;2022-12-18T02:26:30;29.85;;;8.70;;
25439;SDS011;13365;52.208;5.488;2022-12-18T02:29:02;18.83;;;7.70;;
25439;SDS011;13365;52.208;5.488;2022-12-18T02:31:40;19.75;;;7.05;;
25439;SDS011;13365;52.208;5.488;2022-12-18T02:34:09;13.27;;;5.13;;
25439;SDS011;13365;52.208;5.488;2022-12-18T02:36:37;14.88;;;5.72;;
25439;SDS011;13365;52.208;5.488;2022-12-18T02:39:05;11.32;;;6.32;;
25439;SDS011;13365;52.208;5.488;2022-12-18T02:41:34;17.23;;;6.47;;
25439;SDS011;13365;52.208;5.488;2022-12-18T02:44:06;10.48;;;5.70;;
25439;SDS011;13365;52.208;5.488;2022-12-18T02:49:02;12.18;;;5.50;;
25439;SDS011;13365;52.208;5.488;2022-12-18T02:51:55;19.67;;;6.70;;
25439;SDS011;13365;52.208;5.488;2022-12-18T02:54:49;16.70;;;7.60;;
25439;SDS011;13365;52.208;5.488;2022-12-18T03:00:06;12.27;;;5.93;;
25439;SDS011;13365;52.208;5.488;2022-12-18T03:03:19;13.63;;;7.82;;
25439;SDS011;13365;52.208;5.488;2022-12-18T03:05:30;15.52;;;5.93;;
25439;SDS011;13365;52.208;5.488;2022-12-18T03:10:37;15.68;;;5.63;;
25439;SDS011;13365;52.208;5.488;2022-12-18T03:13:08;16.88;;;6.30;;
25439;SDS011;13365;52.208;5.488;2022-12-18T03:15:49;20.85;;;6.57;;
25439;SDS011;13365;52.208;5.488;2022-12-18T03:18:18;17.00;;;7.43;;
25439;SDS011;13365;52.208;5.488;2022-12-18T03:20:50;10.10;;;4.70;;
25439;SDS011;13365;52.208;5.488;2022-12-18T03:23:19;10.68;;;6.22;;
25439;SDS011;13365;52.208;5.488;2022-12-18T03:28:20;7.97;;;4.63;;
25439;SDS011;13365;52.208;5.488;2022-12-18T03:30:47;10.53;;;4.70;;
25439;SDS011;13365;52.208;5.488;2022-12-18T03:33:25;8.63;;;5.63;;
25439;SDS011;13365;52.208;5.488;2022-12-18T03:35:55;19.92;;;8.73;;
25439;SDS011;13365;52.208;5.488;2022-12-18T03:38:20;27.80;;;7.33;;
25439;SDS011;13365;52.208;5.488;2022-12-18T03:40:58;17.80;;;7.73;;
25439;SDS011;13365;52.208;5.488;2022-12-18T03:43:45;11.93;;;5.43;;
25439;SDS011;13365;52.208;5.488;2022-12-18T03:49:19;7.65;;;4.72;;
25439;SDS011;13365;52.208;5.488;2022-12-18T03:51:54;7.43;;;4.33;;
25439;SDS011;13365;52.208;5.488;2022-12-18T03:54:27;16.10;;;5.83;;
25439;SDS011;13365;52.208;5.488;2022-12-18T03:56:57;10.10;;;4.47;;
25439;SDS011;13365;52.208;5.488;2022-12-18T04:01:52;8.63;;;5.47;;
25439;SDS011;13365;52.208;5.488;2022-12-18T04:04:21;12.03;;;4.93;;
25439;SDS011;13365;52.208;5.488;2022-12-18T04:06:48;15.33;;;7.40;;
25439;SDS011;13365;52.208;5.488;2022-12-18T04:09:15;11.70;;;6.53;;
25439;SDS011;13365;52.208;5.488;2022-12-18T04:11:41;8.45;;;3.58;;
25439;SDS011;13365;52.208;5.488;2022-12-18T04:14:09;6.73;;;3.93;;
25439;SDS011;13365;52.208;5.488;2022-12-18T04:16:34;11.98;;;5.22;;
25439;SDS011;13365;52.208;5.488;2022-12-18T04:19:00;10.50;;;4.90;;
25439;SDS011;13365;52.208;5.488;2022-12-18T04:21:26;6.87;;;4.60;;
25439;SDS011;13365;52.208;5.488;2022-12-18T04:23:51;14.83;;;5.70;;
25439;SDS011;13365;52.208;5.488;2022-12-18T04:26:17;9.13;;;4.30;;
25439;SDS011;13365;52.208;5.488;2022-12-18T04:28:42;12.87;;;3.93;;
25439;SDS011;13365;52.208;5.488;2022-12-18T04:31:08;16.70;;;4.23;;
25439;SDS011;13365;52.208;5.488;2022-12-18T04:33:33;17.00;;;8.10;;
25439;SDS011;13365;52.208;5.488;2022-12-18T04:35:59;12.40;;;3.73;;
25439;SDS011;13365;52.208;5.488;2022-12-18T04:38:24;12.73;;;4.38;;
25439;SDS011;13365;52.208;5.488;2022-12-18T04:40:50;4.13;;;2.77;;
25439;SDS011;13365;52.208;5.488;2022-12-18T04:43:15;7.73;;;3.80;;
25439;SDS011;13365;52.208;5.488;2022-12-18T04:45:41;9.53;;;4.77;;
25439;SDS011;13365;52.208;5.488;2022-12-18T04:48:06;16.70;;;5.83;;
25439;SDS011;13365;52.208;5.488;2022-12-18T04:50:32;6.33;;;3.13;;
25439;SDS011;13365;52.208;5.488;2022-12-18T04:52:57;10.00;;;3.60;;
25439;SDS011;13365;52.208;5.488;2022-12-18T04:55:23;9.37;;;4.93;;
25439;SDS011;13365;52.208;5.488;2022-12-18T04:57:52;6.17;;;3.47;;
25439;SDS011;13365;52.208;5.488;2022-12-18T05:00:17;6.83;;;3.93;;
25439;SDS011;13365;52.208;5.488;2022-12-18T05:02:43;10.93;;;4.13;;
25439;SDS011;13365;52.208;5.488;2022-12-18T05:05:09;7.60;;;3.37;;
25439;SDS011;13365;52.208;5.488;2022-12-18T05:07:35;13.23;;;6.00;;
25439;SDS011;13365;52.208;5.488;2022-12-18T05:10:00;9.73;;;5.33;;
25439;SDS011;13365;52.208;5.488;2022-12-18T05:12:26;19.57;;;7.17;;
25439;SDS011;13365;52.208;5.488;2022-12-18T05:14:52;6.23;;;5.13;;
25439;SDS011;13365;52.208;5.488;2022-12-18T05:17:17;7.20;;;3.40;;
25439;SDS011;13365;52.208;5.488;2022-12-18T05:19:43;8.53;;;4.63;;
25439;SDS011;13365;52.208;5.488;2022-12-18T05:22:08;8.83;;;3.53;;
25439;SDS011;13365;52.208;5.488;2022-12-18T05:24:34;6.63;;;4.13;;
25439;SDS011;13365;52.208;5.488;2022-12-18T05:26:59;9.37;;;3.50;;
25439;SDS011;13365;52.208;5.488;2022-12-18T05:29:25;10.97;;;4.90;;
25439;SDS011;13365;52.208;5.488;2022-12-18T05:31:51;7.23;;;2.70;;
25439;SDS011;13365;52.208;5.488;2022-12-18T05:34:16;4.97;;;3.07;;
25439;SDS011;13365;52.208;5.488;2022-12-18T05:36:42;10.17;;;4.10;;
25439;SDS011;13365;52.208;5.488;2022-12-18T05:39:08;4.73;;;2.83;;
25439;SDS011;13365;52.208;5.488;2022-12-18T05:41:34;11.80;;;3.90;;
25439;SDS011;13365;52.208;5.488;2022-12-18T05:43:59;9.67;;;3.20;;
25439;SDS011;13365;52.208;5.488;2022-12-18T05:46:25;6.43;;;4.37;;
25439;SDS011;13365;52.208;5.488;2022-12-18T05:48:51;5.63;;;4.20;;
25439;SDS011;13365;52.208;5.488;2022-12-18T05:51:18;7.40;;;3.07;;
25439;SDS011;13365;52.208;5.488;2022-12-18T05:53:45;7.33;;;3.63;;
25439;SDS011;13365;52.208;5.488;2022-12-18T05:56:12;13.27;;;3.03;;
25439;SDS011;13365;52.208;5.488;2022-12-18T05:58:39;5.23;;;3.30;;
25439;SDS011;13365;52.208;5.488;2022-12-18T06:01:06;7.83;;;4.03;;
25439;SDS011;13365;52.208;5.488;2022-12-18T06:03:34;5.50;;;3.83;;
25439;SDS011;13365;52.208;5.488;2022-12-18T06:05:59;2.67;;;2.43;;
25439;SDS011;13365;52.208;5.488;2022-12-18T06:08:25;10.83;;;3.63;;
25439;SDS011;13365;52.208;5.488;2022-12-18T06:10:51;3.37;;;1.83;;
25439;SDS011;13365;52.208;5.488;2022-12-18T06:13:18;10.93;;;3.73;;
25439;SDS011;13365;52.208;5.488;2022-12-18T06:15:44;17.73;;;4.53;;
25439;SDS011;13365;52.208;5.488;2022-12-18T06:18:09;4.83;;;3.23;;
25439;SDS011;13365;52.208;5.488;2022-12-18T06:20:35;3.17;;;2.00;;
25439;SDS011;13365;52.208;5.488;2022-12-18T06:23:01;9.87;;;4.03;;
25439;SDS011;13365;52.208;5.488;2022-12-18T06:25:27;8.70;;;2.80;;
25439;SDS011;13365;52.208;5.488;2022-12-18T06:27:53;5.23;;;3.33;;
25439;SDS011;13365;52.208;5.488;2022-12-18T06:30:19;6.43;;;3.47;;
25439;SDS011;13365;52.208;5.488;2022-12-18T06:32:44;6.33;;;2.80;;
25439;SDS011;13365;52.208;5.488;2022-12-18T06:35:10;9.57;;;2.90;;
25439;SDS011;13365;52.208;5.488;2022-12-18T06:37:36;5.23;;;3.03;;
25439;SDS011;13365;52.208;5.488;2022-12-18T06:40:01;7.23;;;2.23;;
25439;SDS011;13365;52.208;5.488;2022-12-18T06:42:28;8.33;;;2.67;;
25439;SDS011;13365;52.208;5.488;2022-12-18T06:44:54;7.07;;;3.47;;
25439;SDS011;13365;52.208;5.488;2022-12-18T06:47:19;10.70;;;2.93;;
25439;SDS011;13365;52.208;5.488;2022-12-18T06:49:45;4.40;;;2.23;;
25439;SDS011;13365;52.208;5.488;2022-12-18T06:52:10;3.77;;;2.20;;
25439;SDS011;13365;52.208;5.488;2022-12-18T06:54:36;4.80;;;2.93;;
25439;SDS011;13365;52.208;5.488;2022-12-18T06:57:01;4.70;;;2.80;;
25439;SDS011;13365;52.208;5.488;2022-12-18T06:59:27;2.03;;;1.60;;
25439;SDS011;13365;52.208;5.488;2022-12-18T07:01:52;8.23;;;3.33;;
25439;SDS011;13365;52.208;5.488;2022-12-18T07:04:18;6.53;;;2.87;;
25439;SDS011;13365;52.208;5.488;2022-12-18T07:06:43;3.60;;;2.23;;
25439;SDS011;13365;52.208;5.488;2022-12-18T07:09:09;11.20;;;3.17;;
25439;SDS011;13365;52.208;5.488;2022-12-18T07:11:34;4.80;;;3.03;;
25439;SDS011;13365;52.208;5.488;2022-12-18T07:14:00;3.60;;;1.67;;
25439;SDS011;13365;52.208;5.488;2022-12-18T07:16:26;6.80;;;2.43;;
25439;SDS011;13365;52.208;5.488;2022-12-18T07:18:55;21.33;;;2.40;;
25439;SDS011;13365;52.208;5.488;2022-12-18T07:21:21;7.07;;;3.63;;
25439;SDS011;13365;52.208;5.488;2022-12-18T07:23:48;6.50;;;2.67;;
25439;SDS011;13365;52.208;5.488;2022-12-18T07:26:14;5.60;;;2.15;;
25439;SDS011;13365;52.208;5.488;2022-12-18T07:28:41;8.63;;;2.60;;
25439;SDS011;13365;52.208;5.488;2022-12-18T07:31:08;4.93;;;2.40;;
25439;SDS011;13365;52.208;5.488;2022-12-18T07:33:36;5.07;;;2.70;;
25439;SDS011;13365;52.208;5.488;2022-12-18T07:36:02;4.07;;;3.27;;
25439;SDS011;13365;52.208;5.488;2022-12-18T07:38:29;3.20;;;1.77;;
25439;SDS011;13365;52.208;5.488;2022-12-18T07:40:59;2.67;;;1.97;;
25439;SDS011;13365;52.208;5.488;2022-12-18T07:43:29;4.47;;;3.10;;
25439;SDS011;13365;52.208;5.488;2022-12-18T07:45:54;2.97;;;1.97;;
25439;SDS011;13365;52.208;5.488;2022-12-18T07:48:20;6.03;;;2.33;;
25439;SDS011;13365;52.208;5.488;2022-12-18T07:50:46;10.00;;;2.07;;
25439;SDS011;13365;52.208;5.488;2022-12-18T07:53:11;3.87;;;3.23;;
25439;SDS011;13365;52.208;5.488;2022-12-18T07:55:37;3.93;;;2.37;;
25439;SDS011;13365;52.208;5.488;2022-12-18T07:58:03;4.77;;;2.40;;
25439;SDS011;13365;52.208;5.488;2022-12-18T08:00:29;3.27;;;2.00;;
25439;SDS011;13365;52.208;5.488;2022-12-18T08:02:55;7.20;;;3.30;;
25439;SDS011;13365;52.208;5.488;2022-12-18T08:05:22;3.57;;;2.27;;
25439;SDS011;13365;52.208;5.488;2022-12-18T08:07:47;7.43;;;3.37;;
25439;SDS011;13365;52.208;5.488;2022-12-18T08:10:13;5.47;;;2.43;;
25439;SDS011;13365;52.208;5.488;2022-12-18T08:12:39;5.57;;;2.70;;
25439;SDS011;13365;52.208;5.488;2022-12-18T08:15:04;3.75;;;1.83;;
25439;SDS011;13365;52.208;5.488;2022-12-18T08:17:30;5.10;;;2.67;;
25439;SDS011;13365;52.208;5.488;2022-12-18T08:19:56;6.73;;;4.33;;
25439;SDS011;13365;52.208;5.488;2022-12-18T08:22:22;8.73;;;2.70;;
25439;SDS011;13365;52.208;5.488;2022-12-18T08:24:47;12.77;;;3.63;;
25439;SDS011;13365;52.208;5.488;2022-12-18T08:27:13;9.50;;;3.67;;
25439;SDS011;13365;52.208;5.488;2022-12-18T08:29:38;4.37;;;2.40;;
25439;SDS011;13365;52.208;5.488;2022-12-18T08:32:04;3.92;;;2.38;;
25439;SDS011;13365;52.208;5.488;2022-12-18T08:34:29;9.27;;;3.50;;
25439;SDS011;13365;52.208;5.488;2022-12-18T08:36:55;9.95;;;4.28;;
25439;SDS011;13365;52.208;5.488;2022-12-18T08:39:20;16.42;;;4.68;;
25439;SDS011;13365;52.208;5.488;2022-12-18T08:41:46;5.43;;;2.55;;
25439;SDS011;13365;52.208;5.488;2022-12-18T08:44:32;19.23;;;5.43;;
25439;SDS011;13365;52.208;5.488;2022-12-18T08:47:03;15.18;;;4.45;;
25439;SDS011;13365;52.208;5.488;2022-12-18T08:49:30;9.27;;;3.70;;
25439;SDS011;13365;52.208;5.488;2022-12-18T08:51:55;8.20;;;3.90;;
25439;SDS011;13365;52.208;5.488;2022-12-18T08:54:25;9.25;;;4.05;;
25439;SDS011;13365;52.208;5.488;2022-12-18T08:56:51;7.75;;;2.42;;
25439;SDS011;13365;52.208;5.488;2022-12-18T08:59:17;6.22;;;3.47;;
25439;SDS011;13365;52.208;5.488;2022-12-18T09:01:43;8.15;;;4.60;;
25439;SDS011;13365;52.208;5.488;2022-12-18T09:04:10;7.47;;;3.65;;
25439;SDS011;13365;52.208;5.488;2022-12-18T09:06:35;11.15;;;3.55;;
25439;SDS011;13365;52.208;5.488;2022-12-18T09:09:02;9.55;;;3.42;;
25439;SDS011;13365;52.208;5.488;2022-12-18T09:11:28;5.20;;;2.25;;
25439;SDS011;13365;52.208;5.488;2022-12-18T09:13:55;10.70;;;4.43;;
25439;SDS011;13365;52.208;5.488;2022-12-18T09:16:21;6.25;;;4.35;;
25439;SDS011;13365;52.208;5.488;2022-12-18T09:18:49;6.93;;;3.80;;
25439;SDS011;13365;52.208;5.488;2022-12-18T09:21:15;7.57;;;4.05;;
25439;SDS011;13365;52.208;5.488;2022-12-18T09:23:42;8.30;;;3.13;;
25439;SDS011;13365;52.208;5.488;2022-12-18T09:26:09;8.20;;;4.22;;
25439;SDS011;13365;52.208;5.488;2022-12-18T09:28:34;6.65;;;4.28;;
25439;SDS011;13365;52.208;5.488;2022-12-18T09:31:03;7.43;;;3.67;;
25439;SDS011;13365;52.208;5.488;2022-12-18T09:33:32;4.97;;;3.13;;
25439;SDS011;13365;52.208;5.488;2022-12-18T09:36:00;10.15;;;4.72;;
25439;SDS011;13365;52.208;5.488;2022-12-18T09:38:27;10.35;;;3.63;;
25439;SDS011;13365;52.208;5.488;2022-12-18T09:40:53;8.15;;;3.97;;
25439;SDS011;13365;52.208;5.488;2022-12-18T09:45:57;6.68;;;3.20;;
25439;SDS011;13365;52.208;5.488;2022-12-18T09:48:31;8.98;;;3.10;;
25439;SDS011;13365;52.208;5.488;2022-12-18T09:51:01;5.30;;;3.50;;
25439;SDS011;13365;52.208;5.488;2022-12-18T09:53:31;9.98;;;3.10;;
25439;SDS011;13365;52.208;5.488;2022-12-18T09:56:00;7.07;;;3.78;;
25439;SDS011;13365;52.208;5.488;2022-12-18T10:01:01;9.50;;;3.65;;
25439;SDS011;13365;52.208;5.488;2022-12-18T10:03:26;9.75;;;4.07;;
25439;SDS011;13365;52.208;5.488;2022-12-18T10:08:38;5.80;;;3.47;;
25439;SDS011;13365;52.208;5.488;2022-12-18T10:11:21;6.55;;;3.28;;
25439;SDS011;13365;52.208;5.488;2022-12-18T10:16:45;8.10;;;3.28;;
25439;SDS011;13365;52.208;5.488;2022-12-18T10:19:35;5.38;;;3.30;;
25439;SDS011;13365;52.208;5.488;2022-12-18T10:22:22;5.72;;;2.92;;
25439;SDS011;13365;52.208;5.488;2022-12-18T10:25:45;6.75;;;3.50;;
25439;SDS011;13365;52.208;5.488;2022-12-18T10:27:45;5.47;;;3.28;;
25439;SDS011;13365;52.208;5.488;2022-12-18T10:30:12;5.35;;;3.33;;
25439;SDS011;13365;52.208;5.488;2022-12-18T10:32:39;8.52;;;3.90;;
25439;SDS011;13365;52.208;5.488;2022-12-18T10:35:08;3.80;;;2.63;;
25439;SDS011;13365;52.208;5.488;2022-12-18T10:37:58;8.90;;;3.58;;
25439;SDS011;13365;52.208;5.488;2022-12-18T10:48:41;7.80;;;3.58;;
25439;SDS011;13365;52.208;5.488;2022-12-18T10:51:26;8.55;;;4.15;;
25439;SDS011;13365;52.208;5.488;2022-12-18T10:54:05;11.60;;;3.72;;
25439;SDS011;13365;52.208;5.488;2022-12-18T10:56:37;10.40;;;4.47;;
25439;SDS011;13365;52.208;5.488;2022-12-18T10:59:04;8.77;;;3.03;;
25439;SDS011;13365;52.208;5.488;2022-12-18T11:04:22;8.65;;;4.15;;
25439;SDS011;13365;52.208;5.488;2022-12-18T11:06:54;7.00;;;2.97;;
25439;SDS011;13365;52.208;5.488;2022-12-18T11:09:31;8.50;;;3.72;;
25439;SDS011;13365;52.208;5.488;2022-12-18T11:11:59;5.65;;;3.20;;
25439;SDS011;13365;52.208;5.488;2022-12-18T11:17:29;9.48;;;4.35;;
25439;SDS011;13365;52.208;5.488;2022-12-18T11:20:01;9.07;;;3.33;;
25439;SDS011;13365;52.208;5.488;2022-12-18T11:25:38;8.30;;;3.38;;
25439;SDS011;13365;52.208;5.488;2022-12-18T11:27:52;9.43;;;3.67;;
25439;SDS011;13365;52.208;5.488;2022-12-18T11:30:50;7.43;;;3.60;;
25439;SDS011;13365;52.208;5.488;2022-12-18T11:33:37;10.25;;;3.30;;
25439;SDS011;13365;52.208;5.488;2022-12-18T11:36:05;12.63;;;4.63;;
25439;SDS011;13365;52.208;5.488;2022-12-18T11:38:35;9.65;;;4.32;;
25439;SDS011;13365;52.208;5.488;2022-12-18T11:41:05;7.80;;;4.03;;
25439;SDS011;13365;52.208;5.488;2022-12-18T11:44:10;10.45;;;3.70;;
25439;SDS011;13365;52.208;5.488;2022-12-18T11:46:43;10.40;;;4.35;;
25439;SDS011;13365;52.208;5.488;2022-12-18T11:49:15;9.43;;;3.97;;
25439;SDS011;13365;52.208;5.488;2022-12-18T11:51:58;10.82;;;4.50;;
25439;SDS011;13365;52.208;5.488;2022-12-18T11:54:34;4.90;;;3.40;;
25439;SDS011;13365;52.208;5.488;2022-12-18T12:10:22;10.93;;;3.90;;
25439;SDS011;13365;52.208;5.488;2022-12-18T12:21:02;7.82;;;3.67;;
25439;SDS011;13365;52.208;5.488;2022-12-18T12:26:40;6.82;;;3.85;;
25439;SDS011;13365;52.208;5.488;2022-12-18T12:35:08;10.30;;;4.18;;
25439;SDS011;13365;52.208;5.488;2022-12-18T12:40:45;8.90;;;3.70;;
25439;SDS011;13365;52.208;5.488;2022-12-18T12:45:49;8.18;;;4.43;;
25439;SDS011;13365;52.208;5.488;2022-12-18T12:48:40;11.48;;;4.68;;
25439;SDS011;13365;52.208;5.488;2022-12-18T12:51:36;8.60;;;3.70;;
25439;SDS011;13365;52.208;5.488;2022-12-18T12:54:15;13.02;;;4.20;;
25439;SDS011;13365;52.208;5.488;2022-12-18T13:01:58;9.25;;;4.28;;
25439;SDS011;13365;52.208;5.488;2022-12-18T13:07:15;16.00;;;3.97;;
25439;SDS011;13365;52.208;5.488;2022-12-18T13:15:25;9.32;;;3.85;;
25439;SDS011;13365;52.208;5.488;2022-12-18T13:20:36;6.85;;;3.50;;
25439;SDS011;13365;52.208;5.488;2022-12-18T13:23:19;8.85;;;3.80;;
25439;SDS011;13365;52.208;5.488;2022-12-18T13:30:58;4.97;;;2.72;;
25439;SDS011;13365;52.208;5.488;2022-12-18T13:35:53;10.43;;;3.72;;
25439;SDS011;13365;52.208;5.488;2022-12-18T13:38:23;12.68;;;4.18;;
25439;SDS011;13365;52.208;5.488;2022-12-18T13:41:03;5.55;;;3.15;;
25439;SDS011;13365;52.208;5.488;2022-12-18T13:43:42;9.70;;;4.57;;
25439;SDS011;13365;52.208;5.488;2022-12-18T13:49:03;7.68;;;3.92;;
25439;SDS011;13365;52.208;5.488;2022-12-18T13:51:44;9.02;;;3.85;;
25439;SDS011;13365;52.208;5.488;2022-12-18T13:54:19;11.82;;;4.20;;
25439;SDS011;13365;52.208;5.488;2022-12-18T13:56:56;8.90;;;4.28;;
25439;SDS011;13365;52.208;5.488;2022-12-18T13:59:23;9.75;;;3.88;;
25439;SDS011;13365;52.208;5.488;2022-12-18T14:01:59;8.90;;;3.38;;
25439;SDS011;13365;52.208;5.488;2022-12-18T14:04:31;7.55;;;3.88;;
25439;SDS011;13365;52.208;5.488;2022-12-18T14:07:15;9.85;;;4.32;;
25439;SDS011;13365;52.208;5.488;2022-12-18T14:09:44;6.95;;;4.22;;
25439;SDS011;13365;52.208;5.488;2022-12-18T14:12:17;12.02;;;4.72;;
25439;SDS011;13365;52.208;5.488;2022-12-18T14:15:50;10.95;;;4.28;;
25439;SDS011;13365;52.208;5.488;2022-12-18T14:20:46;8.05;;;4.18;;
25439;SDS011;13365;52.208;5.488;2022-12-18T14:23:31;11.13;;;4.78;;
25439;SDS011;13365;52.208;5.488;2022-12-18T14:26:00;9.30;;;3.47;;
25439;SDS011;13365;52.208;5.488;2022-12-18T14:28:27;12.05;;;3.28;;
25439;SDS011;13365;52.208;5.488;2022-12-18T14:30:53;9.18;;;4.03;;
25439;SDS011;13365;52.208;5.488;2022-12-18T14:33:28;9.90;;;3.00;;
25439;SDS011;13365;52.208;5.488;2022-12-18T14:38:30;7.78;;;4.20;;
25439;SDS011;13365;52.208;5.488;2022-12-18T14:40:58;10.52;;;4.70;;
25439;SDS011;13365;52.208;5.488;2022-12-18T14:43:25;5.70;;;3.33;;
25439;SDS011;13365;52.208;5.488;2022-12-18T14:45:52;10.95;;;4.30;;
25439;SDS011;13365;52.208;5.488;2022-12-18T14:50:45;14.55;;;5.20;;
25439;SDS011;13365;52.208;5.488;2022-12-18T14:53:28;8.48;;;2.92;;
25439;SDS011;13365;52.208;5.488;2022-12-18T14:56:00;8.10;;;3.67;;
25439;SDS011;13365;52.208;5.488;2022-12-18T14:58:27;11.73;;;4.47;;
25439;SDS011;13365;52.208;5.488;2022-12-18T15:00:53;9.77;;;5.10;;
25439;SDS011;13365;52.208;5.488;2022-12-18T15:03:19;7.88;;;3.10;;
25439;SDS011;13365;52.208;5.488;2022-12-18T15:05:46;6.30;;;3.88;;
25439;SDS011;13365;52.208;5.488;2022-12-18T15:08:29;10.70;;;3.85;;
25439;SDS011;13365;52.208;5.488;2022-12-18T15:10:59;7.65;;;3.45;;
25439;SDS011;13365;52.208;5.488;2022-12-18T15:13:24;11.23;;;4.93;;
25439;SDS011;13365;52.208;5.488;2022-12-18T15:15:50;9.80;;;4.60;;
25439;SDS011;13365;52.208;5.488;2022-12-18T15:18:18;12.18;;;4.97;;
25439;SDS011;13365;52.208;5.488;2022-12-18T15:20:53;7.32;;;3.65;;
25439;SDS011;13365;52.208;5.488;2022-12-18T15:26:16;10.70;;;4.65;;
25439;SDS011;13365;52.208;5.488;2022-12-18T15:28:44;12.30;;;5.78;;
25439;SDS011;13365;52.208;5.488;2022-12-18T15:36:12;11.90;;;5.00;;
25439;SDS011;13365;52.208;5.488;2022-12-18T15:38:39;7.00;;;5.07;;
25439;SDS011;13365;52.208;5.488;2022-12-18T15:41:11;6.32;;;4.38;;
25439;SDS011;13365;52.208;5.488;2022-12-18T15:43:39;15.50;;;5.88;;
25439;SDS011;13365;52.208;5.488;2022-12-18T15:46:12;12.20;;;5.15;;
25439;SDS011;13365;52.208;5.488;2022-12-18T15:48:40;9.80;;;4.03;;
25439;SDS011;13365;52.208;5.488;2022-12-18T15:51:10;12.13;;;4.88;;
25439;SDS011;13365;52.208;5.488;2022-12-18T15:53:41;10.80;;;4.55;;
25439;SDS011;13365;52.208;5.488;2022-12-18T15:56:11;11.57;;;4.47;;
25439;SDS011;13365;52.208;5.488;2022-12-18T15:58:55;12.98;;;5.43;;
25439;SDS011;13365;52.208;5.488;2022-12-18T16:01:22;13.77;;;4.55;;
25439;SDS011;13365;52.208;5.488;2022-12-18T16:03:50;11.15;;;5.00;;
25439;SDS011;13365;52.208;5.488;2022-12-18T16:06:15;7.93;;;4.65;;
25439;SDS011;13365;52.208;5.488;2022-12-18T16:08:41;10.32;;;5.85;;
25439;SDS011;13365;52.208;5.488;2022-12-18T16:11:11;11.05;;;4.97;;
25439;SDS011;13365;52.208;5.488;2022-12-18T16:14:03;10.30;;;4.75;;
25439;SDS011;13365;52.208;5.488;2022-12-18T16:16:50;11.27;;;5.38;;
25439;SDS011;13365;52.208;5.488;2022-12-18T16:19:17;11.93;;;4.57;;
25439;SDS011;13365;52.208;5.488;2022-12-18T16:21:43;15.57;;;5.45;;
25439;SDS011;13365;52.208;5.488;2022-12-18T16:24:17;13.65;;;5.63;;
25439;SDS011;13365;52.208;5.488;2022-12-18T16:26:44;10.60;;;5.57;;
25439;SDS011;13365;52.208;5.488;2022-12-18T16:29:10;9.77;;;5.47;;
25439;SDS011;13365;52.208;5.488;2022-12-18T16:31:36;14.93;;;5.15;;
25439;SDS011;13365;52.208;5.488;2022-12-18T16:36:38;20.80;;;7.50;;
25439;SDS011;13365;52.208;5.488;2022-12-18T16:39:03;17.48;;;7.10;;
25439;SDS011;13365;52.208;5.488;2022-12-18T16:41:29;16.73;;;7.05;;
25439;SDS011;13365;52.208;5.488;2022-12-18T16:43:58;17.00;;;4.95;;
25439;SDS011;13365;52.208;5.488;2022-12-18T16:46:27;11.82;;;5.30;;
25439;SDS011;13365;52.208;5.488;2022-12-18T16:48:52;10.18;;;5.03;;
25439;SDS011;13365;52.208;5.488;2022-12-18T16:51:18;12.27;;;5.18;;
25439;SDS011;13365;52.208;5.488;2022-12-18T16:53:44;8.82;;;4.65;;
25439;SDS011;13365;52.208;5.488;2022-12-18T16:56:09;8.90;;;3.92;;
25439;SDS011;13365;52.208;5.488;2022-12-18T16:58:35;19.00;;;5.05;;
25439;SDS011;13365;52.208;5.488;2022-12-18T17:01:00;10.55;;;5.85;;
25439;SDS011;13365;52.208;5.488;2022-12-18T17:03:26;6.93;;;3.90;;
25439;SDS011;13365;52.208;5.488;2022-12-18T17:05:52;13.13;;;5.30;;
25439;SDS011;13365;52.208;5.488;2022-12-18T17:08:18;15.77;;;5.35;;